createdAt,value
2018-12-12T00:01:35.193Z,4.13
2018-12-12T00:04:06.250Z,5.93
2018-12-12T00:06:37.300Z,6.07
2018-12-12T00:09:07.436Z,6.60
2018-12-12T00:11:37.447Z,11.37
2018-12-12T00:14:06.399Z,8.53
2018-12-12T00:16:35.379Z,6.13
2018-12-12T00:19:04.342Z,3.93
2018-12-12T00:21:33.306Z,4.83
2018-12-12T00:24:02.262Z,4.43
2018-12-12T00:26:31.213Z,4.07
2018-12-12T00:29:00.187Z,3.97
2018-12-12T00:31:29.207Z,3.77
2018-12-12T00:33:58.149Z,3.73
2018-12-12T00:36:27.072Z,3.73
2018-12-12T00:38:56.064Z,3.63
2018-12-12T00:41:25.042Z,3.60
2018-12-12T00:43:54.093Z,3.40
2018-12-12T00:46:23.206Z,5.37
2018-12-12T00:48:52.146Z,3.80
2018-12-12T00:51:21.081Z,3.30
2018-12-12T00:53:50.024Z,3.90
2018-12-12T00:56:18.914Z,3.23
2018-12-12T00:58:47.585Z,3.00
2018-12-12T01:01:16.505Z,3.03
2018-12-12T01:03:45.474Z,3.27
2018-12-12T01:06:14.394Z,3.00
2018-12-12T01:08:46.372Z,2.50
2018-12-12T01:11:20.891Z,2.30
2018-12-12T01:13:49.854Z,2.80
2018-12-12T01:16:18.773Z,4.33
2018-12-12T01:18:47.308Z,2.50
2018-12-12T01:21:16.250Z,26.93
2018-12-12T01:23:45.239Z,5.97
2018-12-12T01:26:14.176Z,4.13
2018-12-12T01:28:43.142Z,3.10
2018-12-12T01:31:12.166Z,2.70
2018-12-12T01:33:41.079Z,2.50
2018-12-12T01:36:10.018Z,3.63
2018-12-12T01:38:38.936Z,2.70
2018-12-12T01:41:07.533Z,3.10
2018-12-12T01:43:36.508Z,2.80
2018-12-12T01:46:05.632Z,2.57
2018-12-12T01:48:34.729Z,2.87
2018-12-12T01:51:03.689Z,3.00
2018-12-12T01:53:33.153Z,3.00
2018-12-12T01:56:02.211Z,3.10
2018-12-12T01:58:31.217Z,5.63
2018-12-12T02:01:00.132Z,2.97
2018-12-12T02:03:29.091Z,2.90
2018-12-12T02:05:58.028Z,3.03
2018-12-12T02:08:26.663Z,3.30
2018-12-12T02:10:55.739Z,2.67
2018-12-12T02:13:34.846Z,3.20
2018-12-12T02:16:05.269Z,3.33
2018-12-12T02:18:35.566Z,2.90
2018-12-12T02:21:04.534Z,3.13
2018-12-12T02:23:33.562Z,2.97
2018-12-12T02:26:02.543Z,3.30
2018-12-12T02:28:31.501Z,2.50
2018-12-12T02:31:00.451Z,2.60
2018-12-12T02:33:29.442Z,3.40
2018-12-12T02:35:58.428Z,2.70
2018-12-12T02:38:27.364Z,3.10
2018-12-12T02:40:55.936Z,2.83
2018-12-12T02:43:25.068Z,3.47
2018-12-12T02:45:53.975Z,2.90
2018-12-12T02:48:23.112Z,3.70
2018-12-12T02:50:52.096Z,3.53
2018-12-12T02:53:20.634Z,3.47
2018-12-12T02:55:49.249Z,4.33
2018-12-12T02:58:18.218Z,7.33
2018-12-12T03:00:47.258Z,3.30
2018-12-12T03:03:16.245Z,2.70
2018-12-12T03:05:45.289Z,2.60
2018-12-12T03:08:14.241Z,2.70
2018-12-12T03:10:43.328Z,3.20
2018-12-12T03:13:11.907Z,3.20
2018-12-12T03:15:40.509Z,3.33
2018-12-12T03:18:09.525Z,4.63
2018-12-12T03:20:43.405Z,2.50
2018-12-12T03:23:12.293Z,2.63
2018-12-12T03:25:41.331Z,3.30
2018-12-12T03:28:10.542Z,2.73
2018-12-12T03:30:39.773Z,2.50
2018-12-12T03:33:08.745Z,2.60
2018-12-12T03:35:37.692Z,3.13
2018-12-12T03:38:06.377Z,4.73
2018-12-12T03:40:35.376Z,3.93
2018-12-12T03:43:04.417Z,3.07
2018-12-12T03:45:33.368Z,3.20
2018-12-12T03:48:02.256Z,3.23
2018-12-12T03:50:31.207Z,3.60
2018-12-12T03:53:00.150Z,4.93
2018-12-12T03:55:29.028Z,3.57
2018-12-12T03:57:57.631Z,3.70
2018-12-12T04:00:26.606Z,3.40
2018-12-12T04:02:56.564Z,2.50
2018-12-12T04:05:25.154Z,2.83
2018-12-12T04:07:54.039Z,2.83
2018-12-12T04:10:23.392Z,3.17
2018-12-12T04:12:52.292Z,2.80
2018-12-12T04:15:20.908Z,2.93
2018-12-12T04:17:49.462Z,2.30
2018-12-12T04:20:18.326Z,3.07
2018-12-12T04:22:47.277Z,3.73
2018-12-12T04:25:16.266Z,2.43
2018-12-12T04:27:45.216Z,2.60
2018-12-12T04:30:14.198Z,2.40
2018-12-12T04:32:43.185Z,3.60
2018-12-12T04:35:13.061Z,3.10
2018-12-12T04:37:41.982Z,4.13
2018-12-12T04:40:13.165Z,3.20
2018-12-12T04:42:42.912Z,3.30
2018-12-12T04:45:12.146Z,2.60
2018-12-12T04:47:43.050Z,2.50
2018-12-12T04:50:11.697Z,3.50
2018-12-12T04:52:41.255Z,2.60
2018-12-12T04:55:11.274Z,3.77
2018-12-12T04:57:44.827Z,4.00
2018-12-12T05:00:14.001Z,3.80
2018-12-12T05:02:43.183Z,5.73
2018-12-12T05:05:12.245Z,5.83
2018-12-12T05:07:42.316Z,5.70
2018-12-12T05:10:11.019Z,5.33
2018-12-12T05:12:40.074Z,4.27
2018-12-12T05:15:09.183Z,4.50
2018-12-12T05:17:38.105Z,4.60
2018-12-12T05:20:06.690Z,5.57
2018-12-12T05:22:35.312Z,5.27
2018-12-12T05:25:04.043Z,4.30
2018-12-12T05:27:33.016Z,5.20
2018-12-12T05:30:01.909Z,3.87
2018-12-12T05:32:32.034Z,5.03
2018-12-12T05:35:00.679Z,3.97
2018-12-12T05:37:29.669Z,3.33
2018-12-12T05:39:58.311Z,5.00
2018-12-12T05:42:27.297Z,4.97
2018-12-12T05:44:56.293Z,3.70
2018-12-12T05:47:25.261Z,6.00
2018-12-12T05:49:54.141Z,3.50
2018-12-12T05:52:23.247Z,4.97
2018-12-12T05:54:52.207Z,7.50
2018-12-12T05:57:21.166Z,6.37
2018-12-12T05:59:50.655Z,4.37
2018-12-12T06:02:19.734Z,15.43
2018-12-12T06:04:48.711Z,6.40
2018-12-12T06:07:17.669Z,6.87
2018-12-12T06:09:46.554Z,8.37
2018-12-12T06:12:15.535Z,7.10
2018-12-12T06:14:44.466Z,8.20
2018-12-12T06:17:13.058Z,7.97
2018-12-12T06:19:42.536Z,6.93
2018-12-12T06:22:11.656Z,8.40
2018-12-12T06:24:40.717Z,7.17
2018-12-12T06:27:09.620Z,5.83
2018-12-12T06:29:38.228Z,10.33
2018-12-12T06:32:07.180Z,11.27
2018-12-12T06:34:36.086Z,6.33
2018-12-12T06:37:05.065Z,5.70
2018-12-12T06:39:33.978Z,8.60
2018-12-12T06:42:03.002Z,6.30
2018-12-12T06:44:32.027Z,6.87
2018-12-12T06:47:00.937Z,6.50
2018-12-12T06:49:31.128Z,5.67
2018-12-12T06:52:00.142Z,6.10
2018-12-12T06:54:28.779Z,8.13
2018-12-12T06:56:57.370Z,8.27
2018-12-12T06:59:25.869Z,10.53
2018-12-12T07:01:55.265Z,10.97
2018-12-12T07:04:23.826Z,10.00
2018-12-12T07:06:52.825Z,9.07
2018-12-12T07:09:21.768Z,7.83
2018-12-12T07:11:50.322Z,8.40
2018-12-12T07:14:18.967Z,6.33
2018-12-12T07:16:47.531Z,5.23
2018-12-12T07:19:16.502Z,6.17
2018-12-12T07:21:45.452Z,7.10
2018-12-12T07:24:14.488Z,6.60
2018-12-12T07:26:43.428Z,7.90
2018-12-12T07:29:19.797Z,7.67
2018-12-12T07:31:48.387Z,9.43
2018-12-12T07:34:16.921Z,21.77
2018-12-12T07:36:45.823Z,9.63
2018-12-12T07:39:17.849Z,10.17
2018-12-12T07:41:45.895Z,8.07
2018-12-12T07:44:16.869Z,5.97
2018-12-12T07:47:04.692Z,5.57
2018-12-12T07:49:35.903Z,3.93
2018-12-12T07:52:21.809Z,6.00
2018-12-12T07:54:50.932Z,9.73
2018-12-12T07:57:19.492Z,8.33
2018-12-12T07:59:48.415Z,11.08
2018-12-12T08:02:17.364Z,11.20
2018-12-12T08:04:46.301Z,12.90
2018-12-12T08:07:14.946Z,6.23
2018-12-12T08:09:43.876Z,8.83
2018-12-12T08:12:12.869Z,7.33
2018-12-12T08:14:41.732Z,10.20
2018-12-12T08:17:10.296Z,8.37
2018-12-12T08:19:40.317Z,16.70
2018-12-12T08:22:09.257Z,36.90
2018-12-12T08:24:38.383Z,25.97
2018-12-12T08:27:07.457Z,20.00
2018-12-12T08:29:36.406Z,20.60
2018-12-12T08:32:05.351Z,18.00
2018-12-12T08:34:34.412Z,19.97
2018-12-12T08:37:03.430Z,19.07
2018-12-12T08:39:32.373Z,18.43
2018-12-12T08:42:00.922Z,18.90
2018-12-12T08:44:29.815Z,19.42
2018-12-12T08:46:58.723Z,24.00
2018-12-12T08:49:27.653Z,21.40
2018-12-12T08:51:56.605Z,17.77
2018-12-12T08:54:25.561Z,14.07
2018-12-12T08:56:54.599Z,10.77
2018-12-12T08:59:23.609Z,9.07
2018-12-12T09:01:52.561Z,9.87
2018-12-12T09:04:21.657Z,10.15
2018-12-12T09:06:50.523Z,9.50
2018-12-12T09:09:19.367Z,9.37
2018-12-12T09:11:48.274Z,8.00
2018-12-12T09:14:17.254Z,9.70
2018-12-12T09:16:46.281Z,8.03
2018-12-12T09:19:14.827Z,7.50
2018-12-12T09:21:43.780Z,9.97
2018-12-12T09:24:12.695Z,8.93
2018-12-12T09:26:44.551Z,9.10
2018-12-12T09:29:13.473Z,9.25
2018-12-12T09:31:44.185Z,8.47
2018-12-12T09:34:15.341Z,14.20
2018-12-12T09:36:44.306Z,9.58
2018-12-12T09:39:13.281Z,9.90
2018-12-12T09:41:41.856Z,12.40
2018-12-12T09:44:10.956Z,8.40
2018-12-12T09:46:39.902Z,8.23
2018-12-12T09:49:08.846Z,9.50
2018-12-12T09:51:39.840Z,10.20
2018-12-12T09:54:10.823Z,10.88
2018-12-12T09:56:39.745Z,8.13
2018-12-12T09:59:08.773Z,7.13
2018-12-12T10:01:37.727Z,4.43
2018-12-12T10:04:06.695Z,5.27
2018-12-12T10:06:35.661Z,8.07
2018-12-12T10:09:06.984Z,7.40
2018-12-12T10:11:37.055Z,7.00
2018-12-12T10:14:05.944Z,6.53
2018-12-12T10:16:34.899Z,7.22
2018-12-12T10:19:03.856Z,6.47
2018-12-12T10:21:32.790Z,6.97
2018-12-12T10:24:01.337Z,7.43
2018-12-12T10:26:30.310Z,7.00
2018-12-12T10:28:59.338Z,6.97
2018-12-12T10:31:28.459Z,7.93
2018-12-12T10:33:57.357Z,6.47
2018-12-12T10:36:26.424Z,5.93
2018-12-12T10:38:55.313Z,5.17
2018-12-12T10:41:24.185Z,4.80
2018-12-12T10:43:53.184Z,4.13
2018-12-12T10:46:22.190Z,4.97
2018-12-12T10:48:51.148Z,4.47
2018-12-12T10:51:20.046Z,5.55
2018-12-12T10:53:48.632Z,4.93
2018-12-12T10:56:17.559Z,8.90
2018-12-12T10:58:46.486Z,4.40
2018-12-12T11:01:20.747Z,3.40
2018-12-12T11:03:49.685Z,3.67
2018-12-12T11:06:18.284Z,4.85
2018-12-12T11:08:47.237Z,3.90
2018-12-12T11:11:16.110Z,7.23
2018-12-12T11:13:44.877Z,11.10
2018-12-12T11:16:13.836Z,6.67
2018-12-12T11:18:42.796Z,7.00
2018-12-12T11:21:12.811Z,10.98
2018-12-12T11:23:41.872Z,12.63
2018-12-12T11:26:10.531Z,18.33
2018-12-12T11:28:39.452Z,12.45
2018-12-12T11:31:08.407Z,11.70
2018-12-12T11:33:37.434Z,11.00
2018-12-12T11:36:06.602Z,7.90
2018-12-12T11:38:35.704Z,10.47
2018-12-12T11:41:05.735Z,10.83
2018-12-12T11:43:34.925Z,12.23
2018-12-12T11:46:03.885Z,12.67
2018-12-12T11:48:32.971Z,10.37
2018-12-12T11:51:01.958Z,16.70
2018-12-12T11:53:30.961Z,10.90
2018-12-12T11:55:59.903Z,10.60
2018-12-12T11:58:28.491Z,6.77
2018-12-12T12:00:57.911Z,7.43
2018-12-12T12:03:28.188Z,7.30
2018-12-12T12:05:57.477Z,6.53
2018-12-12T12:08:26.480Z,6.83
2018-12-12T12:10:55.471Z,18.87
2018-12-12T12:13:27.528Z,7.10
2018-12-12T12:15:56.461Z,8.40
2018-12-12T12:18:29.113Z,5.77
2018-12-12T12:20:58.026Z,6.23
2018-12-12T12:23:27.183Z,7.80
2018-12-12T12:25:56.160Z,9.17
2018-12-12T12:28:25.112Z,10.72
2018-12-12T12:30:54.051Z,11.50
2018-12-12T12:33:23.014Z,9.23
2018-12-12T12:35:51.980Z,8.07
2018-12-12T12:38:20.969Z,10.30
2018-12-12T12:40:49.911Z,8.43
2018-12-12T12:43:18.795Z,9.37
2018-12-12T12:45:47.788Z,7.60
2018-12-12T12:48:16.708Z,7.93
2018-12-12T12:50:45.662Z,10.10
2018-12-12T12:53:14.663Z,9.20
2018-12-12T12:55:43.562Z,9.73
2018-12-12T12:58:12.502Z,7.50
2018-12-12T13:00:41.394Z,10.80
2018-12-12T13:03:10.329Z,9.90
2018-12-12T13:05:39.269Z,8.97
2018-12-12T13:08:09.283Z,8.30
2018-12-12T13:13:31.400Z,6.00
2018-12-12T13:16:00.522Z,6.80
2018-12-12T13:18:29.506Z,9.77
2018-12-12T13:20:58.452Z,7.20
2018-12-12T13:23:27.479Z,7.60
2018-12-12T13:25:56.501Z,6.77
2018-12-12T13:28:25.359Z,7.23
2018-12-12T13:30:54.389Z,9.30
2018-12-12T13:33:23.482Z,5.93
2018-12-12T13:35:52.383Z,8.80
2018-12-12T13:38:21.748Z,10.87
2018-12-12T13:40:50.923Z,3.93
2018-12-12T13:43:26.533Z,5.97
2018-12-12T13:45:55.462Z,5.33
2018-12-12T13:48:24.410Z,4.63
2018-12-12T13:50:53.348Z,6.23
2018-12-12T13:53:22.263Z,9.40
2018-12-12T13:55:51.189Z,5.67
2018-12-12T13:58:20.214Z,5.73
2018-12-12T14:00:49.213Z,6.00
2018-12-12T14:03:18.141Z,3.80
2018-12-12T14:05:47.143Z,4.00
2018-12-12T14:08:16.086Z,7.80
2018-12-12T14:10:45.226Z,4.87
2018-12-12T14:13:15.203Z,4.53
2018-12-12T14:15:44.247Z,7.43
2018-12-12T14:18:13.250Z,6.43
2018-12-12T14:20:42.402Z,6.80
2018-12-12T14:23:11.437Z,7.17
2018-12-12T14:25:40.490Z,7.17
2018-12-12T14:28:09.536Z,4.97
2018-12-12T14:30:38.517Z,5.00
2018-12-12T14:33:07.501Z,6.87
2018-12-12T14:35:36.522Z,8.50
2018-12-12T14:38:05.523Z,4.70
2018-12-12T14:40:34.464Z,8.20
2018-12-12T14:43:03.504Z,11.83
2018-12-12T14:45:32.500Z,11.27
2018-12-12T14:48:01.469Z,8.97
2018-12-12T14:50:30.460Z,7.80
2018-12-12T14:52:59.440Z,7.27
2018-12-12T14:55:28.508Z,6.30
2018-12-12T14:57:57.530Z,4.80
2018-12-12T15:00:26.596Z,7.67
2018-12-12T15:02:55.698Z,7.00
2018-12-12T15:05:24.767Z,7.23
2018-12-12T15:07:53.711Z,7.30
2018-12-12T15:10:22.899Z,5.13
2018-12-12T15:12:51.902Z,6.23
2018-12-12T15:15:20.926Z,6.77
2018-12-12T15:17:49.958Z,6.27
2018-12-12T15:20:19.004Z,7.70
2018-12-12T15:22:48.059Z,10.07
2018-12-12T15:25:17.133Z,6.63
2018-12-12T15:27:46.346Z,10.13
2018-12-12T15:30:17.697Z,7.83
2018-12-12T15:32:47.796Z,7.50
2018-12-12T15:35:16.960Z,8.30
2018-12-12T15:37:45.920Z,6.47
2018-12-12T15:40:14.925Z,7.00
2018-12-12T15:42:43.962Z,6.20
2018-12-12T15:45:12.951Z,8.13
2018-12-12T15:47:42.310Z,7.40
2018-12-12T15:50:10.945Z,6.47
2018-12-12T15:52:41.210Z,8.83
2018-12-12T15:55:10.232Z,7.80
2018-12-12T15:57:40.509Z,9.10
2018-12-12T16:00:10.162Z,8.43
2018-12-12T16:02:39.182Z,9.37
2018-12-12T16:05:07.837Z,8.43
2018-12-12T16:07:36.962Z,9.30
2018-12-12T16:10:06.941Z,9.40
2018-12-12T16:12:35.875Z,12.30
2018-12-12T16:15:04.654Z,23.03
2018-12-12T16:17:33.873Z,33.37
2018-12-12T16:20:02.489Z,29.97
2018-12-12T16:22:32.903Z,42.33
2018-12-12T16:25:02.487Z,49.47
2018-12-12T16:27:31.105Z,40.93
2018-12-12T16:30:00.162Z,75.40
2018-12-12T16:32:29.229Z,55.97
2018-12-12T16:34:58.295Z,42.60
2018-12-12T16:37:26.870Z,49.20
2018-12-12T16:39:55.500Z,55.03
2018-12-12T16:42:24.457Z,85.47
2018-12-12T16:44:55.486Z,53.50
2018-12-12T16:47:30.472Z,39.73
2018-12-12T16:49:59.455Z,46.57
2018-12-12T16:52:28.023Z,47.00
2018-12-12T16:54:56.653Z,50.77
2018-12-12T16:57:25.281Z,54.27
2018-12-12T16:59:54.291Z,56.13
2018-12-12T17:02:23.420Z,48.53
2018-12-12T17:04:51.976Z,54.07
2018-12-12T17:07:20.967Z,57.40
2018-12-12T17:09:49.881Z,51.28
2018-12-12T17:12:18.463Z,46.60
2018-12-12T17:14:47.375Z,51.63
2018-12-12T17:17:15.961Z,49.07
2018-12-12T17:19:44.990Z,45.20
2018-12-12T17:22:13.610Z,40.07
2018-12-12T17:24:42.210Z,42.23
2018-12-12T17:27:10.790Z,41.13
2018-12-12T17:29:39.344Z,42.13
2018-12-12T17:32:08.322Z,36.43
2018-12-12T17:34:37.433Z,34.87
2018-12-12T17:37:06.446Z,32.40
2018-12-12T17:39:35.415Z,29.70
2018-12-12T17:42:10.364Z,25.77
2018-12-12T17:44:40.512Z,29.73
2018-12-12T17:47:09.168Z,31.43
2018-12-12T17:49:38.139Z,28.80
2018-12-12T17:52:07.151Z,30.80
2018-12-12T17:54:36.573Z,25.00
2018-12-12T17:57:05.107Z,32.20
2018-12-12T17:59:34.233Z,31.23
2018-12-12T18:02:03.639Z,35.53
2018-12-12T18:04:49.410Z,71.17
2018-12-12T18:07:18.414Z,73.93
2018-12-12T18:09:46.997Z,55.13
2018-12-12T18:12:15.537Z,39.17
2018-12-12T18:14:44.428Z,48.63
2018-12-12T18:17:15.557Z,43.73
2018-12-12T18:19:44.502Z,45.10
2018-12-12T18:22:13.068Z,42.67
2018-12-12T18:24:43.727Z,46.50
2018-12-12T18:27:12.635Z,48.37
2018-12-12T18:29:41.233Z,44.73
2018-12-12T18:32:12.235Z,36.10
2018-12-12T18:35:03.159Z,70.30
2018-12-12T18:37:32.149Z,52.67
2018-12-12T18:40:00.702Z,50.83
2018-12-12T18:42:31.713Z,56.65
2018-12-12T18:45:00.369Z,50.37
2018-12-12T18:47:29.298Z,32.57
2018-12-12T18:49:58.285Z,46.70
2018-12-12T18:52:29.620Z,60.67
2018-12-12T18:55:03.754Z,48.63
2018-12-12T18:57:34.795Z,45.27
2018-12-12T19:00:03.875Z,40.87
2018-12-12T19:02:32.811Z,53.00
2018-12-12T19:05:01.953Z,52.27
2018-12-12T19:07:30.976Z,46.33
2018-12-12T19:09:59.631Z,41.73
2018-12-12T19:12:28.526Z,38.73
2018-12-12T19:15:03.751Z,45.70
2018-12-12T19:17:32.330Z,57.17
2018-12-12T19:20:01.313Z,51.23
2018-12-12T19:22:30.222Z,48.03
2018-12-12T19:24:59.532Z,38.30
2018-12-12T19:27:28.546Z,44.87
2018-12-12T19:29:57.465Z,41.23
2018-12-12T19:32:26.417Z,39.83
2018-12-12T19:34:55.011Z,37.40
2018-12-12T19:37:23.572Z,33.05
2018-12-12T19:39:52.553Z,33.57
2018-12-12T19:42:21.733Z,31.13
2018-12-12T19:44:50.741Z,45.47
2018-12-12T19:47:19.693Z,30.37
2018-12-12T19:49:48.258Z,39.43
2018-12-12T19:52:16.920Z,35.03
2018-12-12T19:54:45.871Z,34.37
2018-12-12T19:57:14.448Z,30.67
2018-12-12T19:59:43.037Z,34.63
2018-12-12T20:02:12.297Z,32.47
2018-12-12T20:04:40.844Z,27.13
2018-12-12T20:07:10.156Z,24.07
2018-12-12T20:09:39.165Z,22.03
2018-12-12T20:12:08.079Z,21.37
2018-12-12T20:14:37.108Z,25.20
2018-12-12T20:17:06.094Z,28.70
2018-12-12T20:19:34.664Z,26.10
2018-12-12T20:22:03.278Z,25.20
2018-12-12T20:24:32.230Z,33.47
2018-12-12T20:27:03.986Z,40.17
2018-12-12T20:29:32.976Z,44.83
2018-12-12T20:32:01.563Z,36.83
2018-12-12T20:34:30.485Z,32.20
2018-12-12T20:36:59.407Z,32.87
2018-12-12T20:39:28.437Z,35.00
2018-12-12T20:41:57.361Z,147.87
2018-12-12T20:44:26.337Z,100.87
2018-12-12T20:46:55.254Z,82.93
2018-12-12T20:49:24.173Z,42.70
2018-12-12T20:51:52.810Z,40.10
2018-12-12T20:54:21.392Z,33.10
2018-12-12T20:56:51.690Z,32.33
2018-12-12T20:59:20.748Z,39.93
2018-12-12T21:01:49.420Z,41.33
2018-12-12T21:04:18.325Z,37.60
2018-12-12T21:06:47.366Z,35.53
2018-12-12T21:09:17.376Z,39.80
2018-12-12T21:11:45.913Z,38.30
2018-12-12T21:14:14.810Z,54.70
2018-12-12T21:16:43.414Z,48.47
2018-12-12T21:19:12.029Z,60.87
2018-12-12T21:21:41.009Z,51.20
2018-12-12T21:24:09.923Z,63.17
2018-12-12T21:26:38.795Z,54.53
2018-12-12T21:29:07.324Z,43.37
2018-12-12T21:31:35.852Z,31.30
2018-12-12T21:34:04.411Z,28.80
2018-12-12T21:36:33.376Z,34.43
2018-12-12T21:39:02.321Z,37.33
2018-12-12T21:41:32.386Z,29.70
2018-12-12T21:44:01.331Z,32.40
2018-12-12T21:46:30.413Z,26.87
2018-12-12T21:48:59.001Z,27.10
2018-12-12T21:51:27.942Z,28.93
2018-12-12T21:53:56.880Z,30.27
2018-12-12T21:56:26.941Z,31.37
2018-12-12T21:58:55.886Z,27.50
2018-12-12T22:01:24.827Z,29.53
2018-12-12T22:03:53.384Z,30.97
2018-12-12T22:06:22.387Z,35.37
2018-12-12T22:08:51.335Z,33.90
2018-12-12T22:11:20.245Z,37.53
2018-12-12T22:13:49.209Z,34.07
2018-12-12T22:16:17.795Z,29.57
2018-12-12T22:18:46.402Z,28.70
2018-12-12T22:21:15.327Z,27.73
2018-12-12T22:23:44.305Z,30.27
2018-12-12T22:26:13.301Z,26.30
2018-12-12T22:28:41.938Z,32.90
2018-12-12T22:31:11.690Z,28.37
2018-12-12T22:33:40.672Z,33.83
2018-12-12T22:36:14.106Z,35.00
2018-12-12T22:38:40.621Z,39.03
2018-12-12T22:41:09.212Z,39.37
2018-12-12T22:43:38.267Z,32.97
2018-12-12T22:46:07.226Z,34.23
2018-12-12T22:48:36.158Z,28.87
2018-12-12T22:51:04.664Z,27.43
2018-12-12T22:53:33.208Z,25.60
2018-12-12T22:56:02.234Z,27.50
2018-12-12T22:58:31.152Z,31.87
2018-12-12T23:01:07.673Z,32.80
2018-12-12T23:03:36.927Z,35.40
2018-12-12T23:06:05.467Z,37.83
2018-12-12T23:08:34.002Z,48.30
2018-12-12T23:11:02.949Z,42.37
2018-12-12T23:13:31.881Z,38.07
2018-12-12T23:16:00.817Z,40.43
2018-12-12T23:18:29.394Z,33.30
2018-12-12T23:20:57.941Z,31.70
2018-12-12T23:23:26.845Z,29.93
2018-12-12T23:25:55.884Z,31.23
2018-12-12T23:28:24.798Z,33.30
2018-12-12T23:30:53.400Z,31.90
2018-12-12T23:33:21.956Z,31.20
2018-12-12T23:35:50.864Z,32.27
2018-12-12T23:38:19.856Z,30.93
2018-12-12T23:40:48.800Z,27.13
2018-12-12T23:43:17.348Z,28.27
2018-12-12T23:45:46.292Z,51.50
2018-12-12T23:48:15.258Z,79.67
2018-12-12T23:50:44.173Z,52.67
2018-12-12T23:53:13.126Z,39.40
2018-12-12T23:55:42.163Z,47.60
2018-12-12T23:58:11.075Z,46.43
